Time;durP1;ratioP1;P1;durP2;ratioP2;P2;SDS_P1;SDS_P2;PMS_P1;PMS_P2;Temp;Humidity;BMP_temperature;BMP_pressure;BME280_temperature;BME280_humidity;BME280_pressure;Samples;Min_cycle;Max_cycle;Signal;HPM_P1;HPM_P2
2022/08/22 00:01:23;;;;;;;7.67;2.97;;;;;;;;;;5092934;28;20538;-79
2022/08/22 00:03:55;;;;;;;4.10;2.40;;;;;;;;;;5093822;28;20538;-81
2022/08/22 00:06:27;;;;;;;3.80;2.20;;;;;;;;;;5094602;28;20554;-78
2022/08/22 00:09:02;;;;;;;2.90;2.10;;;;;;;;;;5090675;28;20539;-79
2022/08/22 00:11:35;;;;;;;2.90;2.10;;;;;;;;;;5086857;28;20495;-79
2022/08/22 00:14:08;;;;;;;4.60;2.70;;;;;;;;;;5091577;28;21206;-78
2022/08/22 00:16:39;;;;;;;4.13;2.30;;;;;;;;;;5092022;28;20542;-80
2022/08/22 00:19:12;;;;;;;5.50;2.80;;;;;;;;;;5092450;28;20486;-79
2022/08/22 00:21:43;;;;;;;5.23;2.63;;;;;;;;;;5091351;28;20943;-79
2022/08/22 00:24:19;;;;;;;4.03;2.33;;;;;;;;;;5091940;28;20526;-79
2022/08/22 00:26:49;;;;;;;4.90;3.03;;;;;;;;;;5094612;28;20414;-79
2022/08/22 00:29:18;;;;;;;6.10;2.40;;;;;;;;;;5094353;28;20991;-79
2022/08/22 00:31:47;;;;;;;5.07;2.40;;;;;;;;;;5088560;28;20412;-79
2022/08/22 00:34:17;;;;;;;5.40;2.60;;;;;;;;;;5087557;28;20439;-79
2022/08/22 00:36:49;;;;;;;3.20;2.53;;;;;;;;;;5091398;28;20508;-78
2022/08/22 00:39:18;;;;;;;2.60;2.10;;;;;;;;;;5090555;28;20529;-80
2022/08/22 00:42:00;;;;;;;6.33;2.87;;;;;;;;;;5091945;28;20531;-79
2022/08/22 00:44:38;;;;;;;4.37;2.67;;;;;;;;;;5092145;28;20526;-78
2022/08/22 00:47:13;;;;;;;4.13;2.53;;;;;;;;;;5092258;28;20522;-78
2022/08/22 00:49:52;;;;;;;6.23;2.83;;;;;;;;;;5092936;28;20518;-80
2022/08/22 00:52:26;;;;;;;10.17;3.30;;;;;;;;;;5092561;28;20442;-80
2022/08/22 00:55:02;;;;;;;5.10;2.73;;;;;;;;;;5086725;28;21026;-80
2022/08/22 00:57:37;;;;;;;5.90;2.70;;;;;;;;;;5088982;28;20489;-79
2022/08/22 01:00:09;;;;;;;4.00;2.30;;;;;;;;;;5091822;28;20537;-80
2022/08/22 01:02:44;;;;;;;3.37;2.43;;;;;;;;;;5091742;28;20435;-79
2022/08/22 01:05:21;;;;;;;3.70;2.53;;;;;;;;;;5091624;28;20824;-80
2022/08/22 01:07:57;;;;;;;5.87;3.30;;;;;;;;;;5092205;28;20541;-80
2022/08/22 01:10:33;;;;;;;3.30;2.67;;;;;;;;;;5092815;28;20542;-79
2022/08/22 01:13:09;;;;;;;4.10;2.63;;;;;;;;;;5093790;28;20533;-79
2022/08/22 01:15:38;;;;;;;5.17;3.00;;;;;;;;;;5089074;28;20469;-78
2022/08/22 01:18:17;;;;;;;6.63;2.93;;;;;;;;;;5086824;28;20495;-79
2022/08/22 01:21:01;;;;;;;6.07;3.20;;;;;;;;;;5090372;28;20448;-80
2022/08/22 01:23:43;;;;;;;5.10;3.20;;;;;;;;;;5091339;28;20442;-78
2022/08/22 01:26:28;;;;;;;3.20;2.70;;;;;;;;;;5091428;28;20554;-79
2022/08/22 01:29:10;;;;;;;2.90;2.60;;;;;;;;;;5091850;28;20781;-78
2022/08/22 01:31:51;;;;;;;2.80;2.60;;;;;;;;;;5090835;28;20482;-80
2022/08/22 01:34:30;;;;;;;4.33;2.60;;;;;;;;;;5093452;28;20504;-80
2022/08/22 01:37:07;;;;;;;4.10;2.50;;;;;;;;;;5091930;28;20526;-79
2022/08/22 01:39:44;;;;;;;3.23;2.47;;;;;;;;;;5087101;28;20486;-80
2022/08/22 01:42:22;;;;;;;3.73;2.40;;;;;;;;;;5088690;28;20519;-78
2022/08/22 01:45:02;;;;;;;3.47;2.93;;;;;;;;;;5090933;28;20502;-80
2022/08/22 01:47:33;;;;;;;3.50;3.10;;;;;;;;;;5091594;28;20765;-80
2022/08/22 01:50:04;;;;;;;3.83;2.83;;;;;;;;;;5091613;28;20461;-79
2022/08/22 01:52:37;;;;;;;4.57;2.90;;;;;;;;;;5090141;28;20446;-79
2022/08/22 01:55:08;;;;;;;3.20;2.63;;;;;;;;;;5092584;28;20478;-80
2022/08/22 01:57:48;;;;;;;5.20;2.67;;;;;;;;;;5093166;28;20803;-81
2022/08/22 02:00:16;;;;;;;4.23;2.77;;;;;;;;;;5087987;28;20986;-79
2022/08/22 02:02:49;;;;;;;4.13;2.50;;;;;;;;;;5086899;28;20545;-79
2022/08/22 02:05:24;;;;;;;3.33;2.67;;;;;;;;;;5089808;28;20814;-78
2022/08/22 02:07:55;;;;;;;5.30;3.13;;;;;;;;;;5093879;28;20541;-78
2022/08/22 02:10:27;;;;;;;5.90;3.07;;;;;;;;;;5094956;28;20418;-78
2022/08/22 02:13:01;;;;;;;7.13;3.00;;;;;;;;;;5095446;28;20545;-81
2022/08/22 02:15:36;;;;;;;2.80;2.50;;;;;;;;;;5094324;28;20441;-80
2022/08/22 02:18:12;;;;;;;5.43;2.67;;;;;;;;;;5096721;28;20560;-80
2022/08/22 02:20:44;;;;;;;4.00;3.40;;;;;;;;;;5096902;28;21259;-79
2022/08/22 02:23:18;;;;;;;5.63;3.10;;;;;;;;;;5090480;28;20514;-83
2022/08/22 02:25:51;;;;;;;5.60;3.50;;;;;;;;;;5090852;28;20454;-80
2022/08/22 02:28:23;;;;;;;4.10;3.20;;;;;;;;;;5093984;28;20445;-81
2022/08/22 02:30:53;;;;;;;4.50;3.70;;;;;;;;;;5094049;28;20967;-78
2022/08/22 02:33:26;;;;;;;5.07;3.07;;;;;;;;;;5094770;28;20499;-78
2022/08/22 02:35:59;;;;;;;3.67;2.87;;;;;;;;;;5094388;28;20855;-80
2022/08/22 02:38:29;;;;;;;5.93;3.13;;;;;;;;;;5093449;28;20449;-80
2022/08/22 02:41:02;;;;;;;3.23;2.80;;;;;;;;;;5096237;28;20446;-79
2022/08/22 02:43:36;;;;;;;4.73;3.37;;;;;;;;;;5095254;28;21004;-81
2022/08/22 02:46:12;;;;;;;4.93;3.10;;;;;;;;;;5089877;28;20516;-79
2022/08/22 02:48:42;;;;;;;5.60;3.37;;;;;;;;;;5090835;28;20894;-80
2022/08/22 02:51:16;;;;;;;4.03;3.27;;;;;;;;;;5093997;28;20435;-79
2022/08/22 02:53:48;;;;;;;6.63;3.20;;;;;;;;;;5093638;28;20464;-80
2022/08/22 02:56:19;;;;;;;4.70;3.10;;;;;;;;;;5092895;28;20459;-81
2022/08/22 02:58:55;;;;;;;7.00;3.07;;;;;;;;;;5094360;28;20466;-79
2022/08/22 03:01:34;;;;;;;4.80;3.13;;;;;;;;;;5093825;28;20451;-79
2022/08/22 03:04:16;;;;;;;4.90;2.87;;;;;;;;;;5094621;28;20537;-79
2022/08/22 03:06:45;;;;;;;3.97;3.20;;;;;;;;;;5091228;28;20496;-80
2022/08/22 03:09:24;;;;;;;4.50;3.03;;;;;;;;;;5088591;28;20499;-81
2022/08/22 03:12:00;;;;;;;5.23;3.17;;;;;;;;;;5092617;28;20410;-79
2022/08/22 03:14:30;;;;;;;4.30;2.83;;;;;;;;;;5093489;28;20448;-79
2022/08/22 03:17:02;;;;;;;5.00;3.33;;;;;;;;;;5094212;28;20504;-81
2022/08/22 03:19:32;;;;;;;5.57;3.10;;;;;;;;;;5092839;28;20486;-79
2022/08/22 03:22:02;;;;;;;4.67;3.30;;;;;;;;;;5092040;28;20427;-81
2022/08/22 03:24:32;;;;;;;4.53;2.97;;;;;;;;;;5096305;28;20508;-79
2022/08/22 03:27:04;;;;;;;7.17;3.97;;;;;;;;;;5095358;28;20423;-81
2022/08/22 03:29:33;;;;;;;4.63;3.30;;;;;;;;;;5090791;28;20535;-79
2022/08/22 03:32:06;;;;;;;4.93;2.93;;;;;;;;;;5088901;28;20933;-81
2022/08/22 03:34:33;;;;;;;5.83;3.27;;;;;;;;;;5092089;28;20501;-82
2022/08/22 03:37:07;;;;;;;6.00;3.53;;;;;;;;;;5092830;28;20425;-81
2022/08/22 03:39:49;;;;;;;4.43;3.50;;;;;;;;;;5092864;28;21141;-80
2022/08/22 03:42:25;;;;;;;5.53;3.30;;;;;;;;;;5091579;28;20439;-81
2022/08/22 03:45:03;;;;;;;7.43;3.33;;;;;;;;;;5092953;28;20442;-80
2022/08/22 03:47:38;;;;;;;5.03;3.37;;;;;;;;;;5095060;28;20509;-80
2022/08/22 03:50:24;;;;;;;4.33;3.43;;;;;;;;;;5094177;28;20828;-80
2022/08/22 03:53:07;;;;;;;8.27;3.30;;;;;;;;;;5087624;28;20493;-81
2022/08/22 03:55:39;;;;;;;5.37;3.47;;;;;;;;;;5089942;28;20472;-79
2022/08/22 03:58:14;;;;;;;5.10;3.40;;;;;;;;;;5092396;28;20412;-80
2022/08/22 04:00:53;;;;;;;5.30;3.83;;;;;;;;;;5092500;28;20909;-82
2022/08/22 04:03:28;;;;;;;3.93;3.40;;;;;;;;;;5092806;28;20966;-81
2022/08/22 04:06:02;;;;;;;4.50;3.37;;;;;;;;;;5092838;28;21054;-81
2022/08/22 04:08:40;;;;;;;4.23;3.60;;;;;;;;;;5093844;28;20510;-79
2022/08/22 04:11:20;;;;;;;5.40;3.90;;;;;;;;;;5094454;28;20447;-80
2022/08/22 04:13:55;;;;;;;4.53;3.57;;;;;;;;;;5090213;28;20449;-80
2022/08/22 04:16:37;;;;;;;4.30;3.67;;;;;;;;;;5087989;28;20446;-82
2022/08/22 04:19:12;;;;;;;4.00;3.60;;;;;;;;;;5090278;28;20543;-81
2022/08/22 04:21:53;;;;;;;4.57;3.40;;;;;;;;;;5092107;28;20528;-79
2022/08/22 04:24:31;;;;;;;4.83;3.57;;;;;;;;;;5092287;28;20544;-81
2022/08/22 04:27:02;;;;;;;4.23;3.20;;;;;;;;;;5092859;28;20532;-80
2022/08/22 04:29:33;;;;;;;3.80;3.13;;;;;;;;;;5091698;28;20540;-81
2022/08/22 04:32:03;;;;;;;4.67;3.70;;;;;;;;;;5093667;28;20512;-80
2022/08/22 04:34:35;;;;;;;6.17;3.80;;;;;;;;;;5093213;28;20525;-80
2022/08/22 04:37:08;;;;;;;4.40;3.13;;;;;;;;;;5087686;28;20399;-81
2022/08/22 04:39:39;;;;;;;4.60;4.10;;;;;;;;;;5088418;28;20461;-80
2022/08/22 04:42:13;;;;;;;7.50;4.10;;;;;;;;;;5090396;28;20508;-79
2022/08/22 04:44:43;;;;;;;4.30;3.33;;;;;;;;;;5091766;28;20966;-79
2022/08/22 04:47:17;;;;;;;4.67;4.00;;;;;;;;;;5091952;28;20452;-82
2022/08/22 04:49:48;;;;;;;4.60;3.57;;;;;;;;;;5092194;28;20544;-80
2022/08/22 04:52:21;;;;;;;6.30;4.27;;;;;;;;;;5092314;28;20433;-82
2022/08/22 04:54:55;;;;;;;7.37;3.60;;;;;;;;;;5094122;28;20851;-82
2022/08/22 04:57:26;;;;;;;4.83;3.57;;;;;;;;;;5092012;28;20617;-80
2022/08/22 04:59:58;;;;;;;5.33;3.87;;;;;;;;;;5087347;28;20475;-79
2022/08/22 05:02:27;;;;;;;5.10;3.77;;;;;;;;;;5089225;28;20849;-81
2022/08/22 05:04:58;;;;;;;6.37;4.57;;;;;;;;;;5091577;28;20584;-82
2022/08/22 05:07:27;;;;;;;5.90;4.40;;;;;;;;;;5090520;28;20432;-82
2022/08/22 05:10:00;;;;;;;7.80;4.20;;;;;;;;;;5091473;28;20932;-81
2022/08/22 05:12:31;;;;;;;5.10;4.20;;;;;;;;;;5092066;28;20516;-80
2022/08/22 05:15:00;;;;;;;3.20;2.90;;;;;;;;;;5091366;28;20500;-81
2022/08/22 05:17:28;;;;;;;11.17;4.10;;;;;;;;;;5093483;28;20529;-79
2022/08/22 05:19:58;;;;;;;17.27;4.93;;;;;;;;;;5087402;28;20559;-82
2022/08/22 05:22:27;;;;;;;4.47;4.03;;;;;;;;;;5081523;28;20508;-81
2022/08/22 05:24:58;;;;;;;5.00;4.10;;;;;;;;;;5089165;28;20450;-88
2022/08/22 05:27:29;;;;;;;4.77;3.90;;;;;;;;;;5091384;28;20513;-79
2022/08/22 05:30:01;;;;;;;5.17;3.80;;;;;;;;;;5091256;28;20508;-82
2022/08/22 05:32:30;;;;;;;4.10;3.70;;;;;;;;;;5091782;28;20422;-82
2022/08/22 05:35:01;;;;;;;4.73;3.50;;;;;;;;;;5091509;28;20483;-82
2022/08/22 05:37:34;;;;;;;5.30;3.43;;;;;;;;;;5092442;28;20489;-86
2022/08/22 05:40:02;;;;;;;11.87;3.97;;;;;;;;;;5093286;28;20481;-83
2022/08/22 05:42:31;;;;;;;7.90;4.37;;;;;;;;;;5092029;28;20470;-83
2022/08/22 05:45:01;;;;;;;6.77;4.40;;;;;;;;;;5090654;28;20436;-85
2022/08/22 05:47:38;;;;;;;6.60;4.27;;;;;;;;;;5093862;28;20492;-85
2022/08/22 05:50:08;;;;;;;6.33;4.53;;;;;;;;;;5094920;28;20538;-85
2022/08/22 05:52:42;;;;;;;4.83;3.90;;;;;;;;;;5093940;28;20535;-85
2022/08/22 05:55:17;;;;;;;5.47;3.93;;;;;;;;;;5095407;28;20500;-84
2022/08/22 05:57:48;;;;;;;5.27;3.90;;;;;;;;;;5094454;28;20443;-83
2022/08/22 06:00:18;;;;;;;5.10;3.60;;;;;;;;;;5096939;28;21090;-82
2022/08/22 06:02:49;;;;;;;5.83;4.30;;;;;;;;;;5092466;28;20443;-82
2022/08/22 06:05:21;;;;;;;4.47;3.67;;;;;;;;;;5090423;28;20448;-81
2022/08/22 06:07:50;;;;;;;7.00;3.73;;;;;;;;;;5093341;28;20440;-81
2022/08/22 06:10:21;;;;;;;4.73;3.90;;;;;;;;;;5094572;28;20542;-84
2022/08/22 06:12:52;;;;;;;4.77;3.60;;;;;;;;;;5094816;28;20505;-80
2022/08/22 06:15:22;;;;;;;4.77;3.77;;;;;;;;;;5094045;28;20463;-82
2022/08/22 06:17:50;;;;;;;4.00;3.57;;;;;;;;;;5094056;28;20458;-80
2022/08/22 06:20:20;;;;;;;5.40;3.50;;;;;;;;;;5096500;28;20533;-84
2022/08/22 06:22:51;;;;;;;5.23;3.17;;;;;;;;;;5096886;28;20538;-84
2022/08/22 06:25:22;;;;;;;6.17;3.40;;;;;;;;;;5091216;28;20464;-82
2022/08/22 06:27:50;;;;;;;5.37;3.33;;;;;;;;;;5089285;28;20440;-82
2022/08/22 06:30:19;;;;;;;5.93;3.53;;;;;;;;;;5073573;28;20891;-82
2022/08/22 06:32:49;;;;;;;4.73;3.00;;;;;;;;;;5073802;28;20547;-84
2022/08/22 06:35:18;;;;;;;6.13;3.40;;;;;;;;;;5073842;28;20468;-84
2022/08/22 06:37:48;;;;;;;7.47;3.20;;;;;;;;;;5073504;28;20443;-82
2022/08/22 06:40:17;;;;;;;6.00;3.30;;;;;;;;;;5077847;28;20517;-82
2022/08/22 06:42:47;;;;;;;4.47;3.90;;;;;;;;;;5095212;28;20819;-82
2022/08/22 06:45:17;;;;;;;5.63;3.13;;;;;;;;;;5096065;28;20463;-82
2022/08/22 06:47:47;;;;;;;4.87;3.47;;;;;;;;;;5090632;28;20921;-83
2022/08/22 06:50:19;;;;;;;6.67;3.37;;;;;;;;;;5090063;28;20492;-83
2022/08/22 06:52:51;;;;;;;4.50;3.33;;;;;;;;;;5092358;28;20538;-81
2022/08/22 06:55:18;;;;;;;5.73;3.47;;;;;;;;;;5093378;28;20496;-81
2022/08/22 06:57:50;;;;;;;5.90;3.60;;;;;;;;;;5092982;28;20431;-83
2022/08/22 07:00:17;;;;;;;5.33;4.00;;;;;;;;;;5094410;28;20490;-82
2022/08/22 07:02:46;;;;;;;6.00;3.70;;;;;;;;;;5093858;28;20546;-83
2022/08/22 07:05:15;;;;;;;4.63;3.20;;;;;;;;;;5095802;28;20894;-83
2022/08/22 07:07:43;;;;;;;4.60;3.57;;;;;;;;;;5094881;28;20863;-83
2022/08/22 07:10:11;;;;;;;5.13;3.93;;;;;;;;;;5089386;28;20435;-83
2022/08/22 07:12:39;;;;;;;7.77;4.17;;;;;;;;;;5090320;28;20782;-83
2022/08/22 07:15:14;;;;;;;5.50;3.70;;;;;;;;;;5092690;28;20508;-82
2022/08/22 07:17:48;;;;;;;7.90;3.70;;;;;;;;;;5092088;28;20439;-82
2022/08/22 07:20:22;;;;;;;5.63;3.63;;;;;;;;;;5093572;28;20847;-82
2022/08/22 07:22:52;;;;;;;6.77;3.73;;;;;;;;;;5093546;28;20996;-85
2022/08/22 07:25:19;;;;;;;7.07;4.03;;;;;;;;;;5093755;28;20463;-87
2022/08/22 07:27:54;;;;;;;8.90;3.63;;;;;;;;;;5095554;28;20963;-87
2022/08/22 07:30:23;;;;;;;9.37;4.43;;;;;;;;;;5094520;28;20522;-86
2022/08/22 07:32:54;;;;;;;6.87;3.70;;;;;;;;;;5087538;28;20500;-88
2022/08/22 07:35:24;;;;;;;4.00;3.07;;;;;;;;;;5089549;28;20555;-89
2022/08/22 07:37:57;;;;;;;5.00;3.57;;;;;;;;;;5093409;28;20546;-89
2022/08/22 07:40:27;;;;;;;8.33;3.43;;;;;;;;;;5093015;28;20901;-86
2022/08/22 07:42:57;;;;;;;5.73;3.60;;;;;;;;;;5094155;28;20830;-88
2022/08/22 07:45:32;;;;;;;5.43;3.50;;;;;;;;;;5093489;28;20811;-88
2022/08/22 07:48:11;;;;;;;4.90;2.93;;;;;;;;;;5092546;28;20520;-88
2022/08/22 07:50:42;;;;;;;6.53;4.00;;;;;;;;;;5095741;28;21004;-91
2022/08/22 07:53:15;;;;;;;9.87;4.00;;;;;;;;;;5093518;28;20527;-89
2022/08/22 07:55:43;;;;;;;5.37;3.10;;;;;;;;;;5088780;28;20780;-86
2022/08/22 07:58:12;;;;;;;9.00;4.20;;;;;;;;;;5090424;28;20476;-88
2022/08/22 08:00:44;;;;;;;6.13;3.87;;;;;;;;;;5092626;28;20495;-85
2022/08/22 08:03:12;;;;;;;6.20;3.97;;;;;;;;;;5091328;28;20439;-86
2022/08/22 08:05:42;;;;;;;5.37;3.40;;;;;;;;;;5092448;28;20490;-88
2022/08/22 08:08:13;;;;;;;6.03;3.70;;;;;;;;;;5092766;28;20446;-86
2022/08/22 08:10:40;;;;;;;3.50;2.60;;;;;;;;;;5093444;28;20534;-85
2022/08/22 08:13:10;;;;;;;3.73;2.53;;;;;;;;;;5094819;28;20440;-86
2022/08/22 08:15:39;;;;;;;6.40;3.10;;;;;;;;;;5092848;28;20466;-82
2022/08/22 08:18:11;;;;;;;6.03;3.40;;;;;;;;;;5088228;28;20436;-84
2022/08/22 08:20:39;;;;;;;6.00;3.00;;;;;;;;;;5089593;28;20483;-85
2022/08/22 08:23:07;;;;;;;5.40;2.97;;;;;;;;;;5092011;28;20471;-84
2022/08/22 08:25:49;;;;;;;5.87;2.57;;;;;;;;;;5090943;28;20558;-85
2022/08/22 08:30:59;;;;;;;3.80;2.27;;;;;;;;;;5091851;28;20436;-84
2022/08/22 08:33:29;;;;;;;5.70;2.70;;;;;;;;;;5093009;28;20924;-86
2022/08/22 08:36:02;;;;;;;2.50;2.20;;;;;;;;;;5088226;28;20546;-83
2022/08/22 08:38:34;;;;;;;3.37;2.30;;;;;;;;;;5087795;28;20423;-81
2022/08/22 08:41:14;;;;;;;3.40;2.00;;;;;;;;;;5091139;28;20974;-81
2022/08/22 08:43:45;;;;;;;4.27;2.27;;;;;;;;;;5091440;28;20457;-80
2022/08/22 08:46:24;;;;;;;4.57;2.60;;;;;;;;;;5091993;28;20905;-82
2022/08/22 08:49:06;;;;;;;6.10;2.60;;;;;;;;;;5092452;28;20443;-82
2022/08/22 08:51:43;;;;;;;5.80;2.20;;;;;;;;;;5081412;28;20491;-82
2022/08/22 08:54:14;;;;;;;5.70;2.13;;;;;;;;;;5074491;28;21000;-80
2022/08/22 08:56:47;;;;;;;4.47;2.30;;;;;;;;;;5076982;28;20442;-82
2022/08/22 08:59:24;;;;;;;3.30;2.30;;;;;;;;;;5087525;28;20515;-84
2022/08/22 09:01:59;;;;;;;5.03;2.70;;;;;;;;;;5088679;28;20528;-83
2022/08/22 09:04:35;;;;;;;5.30;2.50;;;;;;;;;;5091411;28;20434;-86
2022/08/22 09:07:17;;;;;;;4.37;2.40;;;;;;;;;;5091522;28;20526;-83
2022/08/22 09:09:55;;;;;;;3.60;1.63;;;;;;;;;;5091832;28;20478;-84
2022/08/22 09:12:32;;;;;;;2.20;2.00;;;;;;;;;;5092714;28;20816;-83
2022/08/22 09:15:08;;;;;;;3.20;2.00;;;;;;;;;;5091502;28;20538;-83
2022/08/22 09:17:45;;;;;;;2.57;2.03;;;;;;;;;;5090481;28;20844;-83
2022/08/22 09:20:22;;;;;;;3.43;2.00;;;;;;;;;;5093365;28;20573;-84
2022/08/22 09:23:05;;;;;;;8.20;2.27;;;;;;;;;;5097489;28;20445;-83
2022/08/22 09:25:37;;;;;;;3.03;2.10;;;;;;;;;;5098309;28;20558;-82
2022/08/22 09:28:12;;;;;;;3.47;1.93;;;;;;;;;;5100636;28;20485;-83
2022/08/22 09:30:47;;;;;;;4.07;2.40;;;;;;;;;;5100143;28;21025;-82
2022/08/22 09:33:16;;;;;;;3.70;1.90;;;;;;;;;;5078504;28;20507;-83
2022/08/22 09:35:49;;;;;;;5.27;2.00;;;;;;;;;;5079643;28;21065;-82
2022/08/22 09:38:23;;;;;;;3.80;2.23;;;;;;;;;;5091937;28;20522;-81
2022/08/22 09:40:54;;;;;;;3.90;2.83;;;;;;;;;;5096058;28;20471;-80
2022/08/22 09:43:25;;;;;;;6.27;2.60;;;;;;;;;;5098509;28;20476;-82
2022/08/22 09:45:59;;;;;;;5.17;2.07;;;;;;;;;;5099275;28;20534;-81
2022/08/22 09:48:34;;;;;;;6.03;2.43;;;;;;;;;;5098845;28;20543;-80
2022/08/22 09:51:10;;;;;;;5.93;2.00;;;;;;;;;;5098003;28;20468;-85
2022/08/22 09:53:45;;;;;;;3.13;2.37;;;;;;;;;;5097258;28;20451;-81
2022/08/22 09:56:17;;;;;;;2.33;1.70;;;;;;;;;;5100087;28;20554;-82
2022/08/22 09:58:50;;;;;;;3.50;2.10;;;;;;;;;;5099164;28;20496;-82
2022/08/22 10:01:25;;;;;;;4.53;2.43;;;;;;;;;;5093181;28;20491;-83
2022/08/22 10:04:07;;;;;;;4.23;2.30;;;;;;;;;;5092066;28;20462;-83
2022/08/22 10:06:44;;;;;;;2.63;2.17;;;;;;;;;;5074314;28;20460;-84
2022/08/22 10:09:20;;;;;;;4.27;2.20;;;;;;;;;;5074308;28;20534;-85
2022/08/22 10:11:51;;;;;;;4.80;2.23;;;;;;;;;;5076292;28;20526;-82
2022/08/22 10:14:21;;;;;;;4.07;1.97;;;;;;;;;;5078582;28;20443;-84
2022/08/22 10:16:54;;;;;;;5.60;2.93;;;;;;;;;;5079544;28;20480;-81
2022/08/22 10:19:25;;;;;;;3.80;2.70;;;;;;;;;;5081108;28;20532;-82
2022/08/22 10:22:07;;;;;;;4.20;2.77;;;;;;;;;;5080891;28;20483;-79
2022/08/22 10:24:41;;;;;;;3.30;2.37;;;;;;;;;;5095306;28;20542;-81
2022/08/22 10:27:12;;;;;;;4.30;2.70;;;;;;;;;;5096550;28;20480;-78
2022/08/22 10:29:48;;;;;;;4.53;2.30;;;;;;;;;;5100564;28;20439;-80
2022/08/22 10:32:19;;;;;;;5.87;2.40;;;;;;;;;;5100148;28;20493;-81
2022/08/22 10:34:50;;;;;;;3.30;2.43;;;;;;;;;;5101133;28;20477;-82
2022/08/22 10:37:19;;;;;;;5.13;2.50;;;;;;;;;;5099878;28;20435;-80
2022/08/22 10:39:49;;;;;;;4.13;2.57;;;;;;;;;;5100061;28;20459;-80
2022/08/22 10:42:20;;;;;;;4.67;2.40;;;;;;;;;;5102394;28;20483;-78
2022/08/22 10:44:54;;;;;;;3.60;2.70;;;;;;;;;;5101772;28;20479;-83
2022/08/22 10:47:28;;;;;;;2.80;2.10;;;;;;;;;;5093210;28;20950;-84
2022/08/22 10:49:59;;;;;;;3.13;2.00;;;;;;;;;;5091224;28;20518;-81
2022/08/22 10:52:29;;;;;;;3.50;2.13;;;;;;;;;;5093915;28;20522;-79
2022/08/22 10:55:00;;;;;;;3.23;2.03;;;;;;;;;;5093818;28;20819;-81
2022/08/22 10:57:42;;;;;;;3.17;2.17;;;;;;;;;;5093767;28;20787;-82
2022/08/22 11:00:13;;;;;;;3.20;2.17;;;;;;;;;;5095240;28;20444;-80
2022/08/22 11:02:47;;;;;;;3.47;2.73;;;;;;;;;;5095643;28;20989;-81
2022/08/22 11:05:22;;;;;;;5.20;2.40;;;;;;;;;;5096251;28;20509;-78
2022/08/22 11:07:55;;;;;;;3.40;2.17;;;;;;;;;;5095440;28;20435;-79
2022/08/22 11:10:29;;;;;;;2.93;2.07;;;;;;;;;;5090210;28;20908;-79
2022/08/22 11:13:05;;;;;;;3.50;2.30;;;;;;;;;;5092512;28;20946;-81
2022/08/22 11:15:47;;;;;;;2.53;2.00;;;;;;;;;;5095454;28;20512;-79
2022/08/22 11:18:20;;;;;;;2.93;1.80;;;;;;;;;;5096662;28;20511;-80
2022/08/22 11:20:54;;;;;;;4.73;2.33;;;;;;;;;;5098941;28;20475;-80
2022/08/22 11:23:26;;;;;;;3.97;2.67;;;;;;;;;;5094540;28;20522;-81
2022/08/22 11:26:03;;;;;;;2.37;2.10;;;;;;;;;;5094557;28;20467;-83
2022/08/22 11:28:37;;;;;;;2.63;2.03;;;;;;;;;;5095512;28;20529;-81
2022/08/22 11:31:09;;;;;;;3.53;2.30;;;;;;;;;;5093466;28;20569;-84
2022/08/22 11:33:41;;;;;;;2.43;2.23;;;;;;;;;;5088052;28;20514;-84
2022/08/22 11:36:14;;;;;;;2.87;2.17;;;;;;;;;;5088924;28;21087;-84
2022/08/22 11:38:46;;;;;;;3.07;2.20;;;;;;;;;;5092903;28;20523;-84
2022/08/22 11:41:17;;;;;;;3.50;2.43;;;;;;;;;;5092732;28;20479;-83
2022/08/22 11:43:49;;;;;;;3.00;2.17;;;;;;;;;;5093643;28;20531;-83
2022/08/22 11:46:20;;;;;;;3.37;2.30;;;;;;;;;;5093428;28;20566;-86
2022/08/22 11:48:55;;;;;;;2.83;2.00;;;;;;;;;;5092920;28;20530;-82
2022/08/22 11:51:29;;;;;;;2.50;2.30;;;;;;;;;;5086061;28;20459;-81
2022/08/22 11:54:01;;;;;;;5.00;2.30;;;;;;;;;;5089428;28;20466;-82
2022/08/22 11:56:33;;;;;;;4.13;2.30;;;;;;;;;;5073676;28;20515;-81
2022/08/22 11:59:03;;;;;;;4.63;2.57;;;;;;;;;;5072314;28;20531;-81
2022/08/22 12:01:34;;;;;;;4.77;2.40;;;;;;;;;;5072606;28;20508;-79
2022/08/22 12:04:05;;;;;;;4.93;2.90;;;;;;;;;;5072576;28;20470;-80
2022/08/22 12:06:39;;;;;;;5.13;2.33;;;;;;;;;;5083075;28;20601;-83
2022/08/22 12:09:12;;;;;;;3.50;2.30;;;;;;;;;;5093437;28;20449;-81
2022/08/22 12:11:45;;;;;;;2.33;2.13;;;;;;;;;;5092973;28;20443;-79
2022/08/22 12:14:18;;;;;;;2.27;2.07;;;;;;;;;;5077419;28;20808;-81
2022/08/22 12:16:51;;;;;;;4.10;3.00;;;;;;;;;;5084670;28;20451;-80
2022/08/22 12:19:23;;;;;;;8.53;2.40;;;;;;;;;;5092322;28;20531;-80
2022/08/22 12:22:03;;;;;;;2.60;2.27;;;;;;;;;;5081050;28;20513;-81
2022/08/22 12:24:34;;;;;;;3.90;2.70;;;;;;;;;;5091509;28;21073;-78
2022/08/22 12:27:15;;;;;;;3.50;2.20;;;;;;;;;;5092889;28;20482;-81
2022/08/22 12:29:46;;;;;;;4.17;2.10;;;;;;;;;;5093197;28;20482;-82
2022/08/22 12:32:32;;;;;;;7.63;3.40;;;;;;;;;;5094421;28;20450;-82
2022/08/22 12:35:06;;;;;;;4.50;2.80;;;;;;;;;;5092118;28;20450;-82
2022/08/22 12:37:38;;;;;;;3.37;2.40;;;;;;;;;;5087925;28;20511;-80
2022/08/22 12:40:14;;;;;;;3.13;2.50;;;;;;;;;;5089396;28;20526;-83
2022/08/22 12:42:52;;;;;;;6.07;2.63;;;;;;;;;;5091774;28;20548;-80
2022/08/22 12:45:25;;;;;;;3.53;2.20;;;;;;;;;;5091735;28;20542;-82
2022/08/22 12:47:59;;;;;;;3.77;2.40;;;;;;;;;;5092513;28;20534;-82
2022/08/22 12:50:32;;;;;;;4.23;2.70;;;;;;;;;;5091685;28;20534;-83
2022/08/22 12:53:08;;;;;;;5.33;2.50;;;;;;;;;;5092832;28;20899;-79
2022/08/22 12:55:42;;;;;;;4.10;2.50;;;;;;;;;;5093898;28;20494;-81
2022/08/22 12:58:14;;;;;;;6.60;2.50;;;;;;;;;;5090678;28;20446;-79
2022/08/22 13:00:43;;;;;;;5.03;2.27;;;;;;;;;;5087532;28;20431;-79
2022/08/22 13:03:13;;;;;;;5.60;3.23;;;;;;;;;;5089538;28;21033;-82
2022/08/22 13:05:44;;;;;;;3.10;2.80;;;;;;;;;;5091823;28;20498;-84
2022/08/22 13:08:15;;;;;;;3.73;2.40;;;;;;;;;;5090398;28;20526;-78
2022/08/22 13:10:45;;;;;;;3.97;2.70;;;;;;;;;;5091984;28;20435;-82
2022/08/22 13:13:15;;;;;;;4.83;2.60;;;;;;;;;;5091796;28;20472;-78
2022/08/22 13:15:45;;;;;;;3.93;3.17;;;;;;;;;;5091960;28;20558;-83
2022/08/22 13:18:16;;;;;;;3.80;2.50;;;;;;;;;;5093721;28;20492;-79
2022/08/22 13:20:45;;;;;;;3.87;2.57;;;;;;;;;;5090760;28;20527;-81
2022/08/22 13:23:16;;;;;;;5.87;3.13;;;;;;;;;;5085921;28;20988;-81
2022/08/22 13:25:58;;;;;;;2.93;2.30;;;;;;;;;;5089265;28;20457;-80
2022/08/22 13:28:32;;;;;;;3.70;2.57;;;;;;;;;;5091058;28;20439;-83
2022/08/22 13:31:00;;;;;;;3.67;2.43;;;;;;;;;;5091205;28;20478;-82
2022/08/22 13:33:29;;;;;;;3.30;2.30;;;;;;;;;;5090804;28;20467;-80
2022/08/22 13:35:58;;;;;;;3.27;2.20;;;;;;;;;;5091349;28;20478;-81
2022/08/22 13:38:30;;;;;;;6.70;2.63;;;;;;;;;;5093189;28;20530;-80
2022/08/22 13:40:58;;;;;;;2.90;2.13;;;;;;;;;;5092355;28;20530;-79
2022/08/22 13:43:29;;;;;;;4.17;2.53;;;;;;;;;;5090169;28;20471;-81
2022/08/22 13:45:57;;;;;;;5.10;2.70;;;;;;;;;;5086805;28;20951;-81
2022/08/22 13:48:27;;;;;;;3.27;2.23;;;;;;;;;;5089379;28;20438;-79
2022/08/22 13:51:02;;;;;;;3.20;2.20;;;;;;;;;;5090051;28;20496;-80
2022/08/22 13:53:34;;;;;;;3.33;2.37;;;;;;;;;;5091020;28;20439;-79
2022/08/22 13:56:07;;;;;;;3.77;2.53;;;;;;;;;;5091708;28;20887;-79
2022/08/22 13:58:38;;;;;;;2.63;2.23;;;;;;;;;;5090940;28;20534;-78
2022/08/22 14:01:13;;;;;;;2.83;1.93;;;;;;;;;;5073450;28;20440;-80
2022/08/22 14:03:45;;;;;;;4.43;2.53;;;;;;;;;;5075654;28;20508;-79
2022/08/22 14:06:21;;;;;;;4.37;2.33;;;;;;;;;;5086406;28;20462;-80
2022/08/22 14:08:49;;;;;;;4.20;2.23;;;;;;;;;;5090328;28;20518;-85
2022/08/22 14:11:22;;;;;;;4.63;2.60;;;;;;;;;;5093776;28;20541;-80
2022/08/22 14:13:55;;;;;;;4.60;2.00;;;;;;;;;;5093380;28;20438;-80
2022/08/22 14:16:25;;;;;;;3.40;2.20;;;;;;;;;;5094623;28;20459;-78
2022/08/22 14:18:58;;;;;;;3.50;2.23;;;;;;;;;;5095128;28;20435;-81
2022/08/22 14:21:29;;;;;;;2.57;2.23;;;;;;;;;;5094295;28;20952;-79
2022/08/22 14:23:58;;;;;;;5.10;2.17;;;;;;;;;;5096832;28;20526;-81
2022/08/22 14:26:28;;;;;;;3.00;1.97;;;;;;;;;;5096681;28;20463;-78
2022/08/22 14:28:57;;;;;;;3.90;2.03;;;;;;;;;;5090389;28;20467;-80
2022/08/22 14:31:26;;;;;;;2.80;2.20;;;;;;;;;;5089038;28;20431;-79
2022/08/22 14:33:54;;;;;;;3.53;2.30;;;;;;;;;;5092167;28;20489;-80
2022/08/22 14:36:24;;;;;;;2.23;1.97;;;;;;;;;;5093776;28;20566;-80
2022/08/22 14:38:55;;;;;;;4.53;2.00;;;;;;;;;;5094561;28;20470;-80
2022/08/22 14:41:25;;;;;;;3.90;2.57;;;;;;;;;;5094935;28;20439;-81
2022/08/22 14:43:55;;;;;;;5.17;2.40;;;;;;;;;;5094399;28;20447;-79
2022/08/22 14:46:26;;;;;;;2.60;2.40;;;;;;;;;;5096377;28;20459;-79
2022/08/22 14:49:06;;;;;;;5.20;2.30;;;;;;;;;;5095306;28;20947;-80
2022/08/22 14:51:34;;;;;;;3.30;1.83;;;;;;;;;;5090621;28;20431;-82
2022/08/22 14:54:09;;;;;;;4.47;2.40;;;;;;;;;;5089926;28;20455;-79
2022/08/22 14:56:37;;;;;;;2.53;2.23;;;;;;;;;;5093201;28;20546;-79
2022/08/22 14:59:06;;;;;;;2.10;1.80;;;;;;;;;;5094037;28;20478;-79
2022/08/22 15:01:36;;;;;;;3.93;2.50;;;;;;;;;;5093850;28;20482;-79
2022/08/22 15:04:06;;;;;;;2.80;2.10;;;;;;;;;;5093220;28;20534;-80
2022/08/22 15:06:35;;;;;;;2.90;2.10;;;;;;;;;;5093783;28;20479;-81
2022/08/22 15:09:03;;;;;;;3.97;2.67;;;;;;;;;;5094654;28;20492;-83
2022/08/22 15:11:31;;;;;;;3.50;2.40;;;;;;;;;;5094564;28;20527;-81
2022/08/22 15:14:00;;;;;;;3.67;2.13;;;;;;;;;;5089498;28;20432;-84
2022/08/22 15:16:31;;;;;;;2.63;2.27;;;;;;;;;;5089583;28;20535;-84
2022/08/22 15:19:00;;;;;;;2.97;2.10;;;;;;;;;;5092841;28;20813;-82